PWSweather.com
Personal Weather Stations
Station Observations
KCARIDGE3
Ridgecrest, CA 93555

Ridgecrest, CA 93555

Lat: 35.62083817, Lon: -117.6733017

Elevation: 2315

Station Type:

High Low Average
Temperature 108.5°F42.5°F 77.2°F25.1°F 93.4°F34.1°F
Dew Point 38.7°F3.7°F 1.6°F-16.9°F 26.4°F-3.1°F
Winds 21.0 mph SSW33.8 mph SSW Calm Calm 9.9 mph 15.9 mph
Wind Gusts 31.1 mph50.1 mph -- 9.8 mph15.8 mph
Humidity 23% 2% 11%
Pressure 0.00 in0.00 in 0.00 in0.00 in -
Precipitation 0.00 in0.00 in - -
Hour Temp Dew Point Humidity Winds Wind Gusts Pressure Precip Precip Rate Daily Precip Total
12:02 AM 86.7°F30.4°C 33.6°F0.9°C 15% 14.1 mph SSW22.7 kmh SSW 19.0 mph30.6 kmh -338605.1 mb - 0.00 in0.0 mm 0.00 in0.0 mm
12:07 AM 86.5°F30.3°C 33.4°F0.8°C 15% 14.1 mph SSW22.7 kmh SSW 14.1 mph22.7 kmh -338605.1 mb - 0.00 in0.0 mm 0.00 in0.0 mm
12:12 AM 86.2°F30.1°C 33.1°F0.6°C 15% 12.1 mph SW19.5 kmh SW 10.1 mph16.3 kmh -338605.1 mb - 0.00 in0.0 mm 0.00 in0.0 mm
12:17 AM 86.0°F30.0°C 32.9°F0.5°C 15% 11.0 mph S17.7 kmh S 10.1 mph16.3 kmh -338605.1 mb - 0.00 in0.0 mm 0.00 in0.0 mm
12:22 AM 86.4°F30.2°C 31.5°F-0.3°C 14% 10.1 mph S16.3 kmh S 8.9 mph14.3 kmh -338605.1 mb - 0.00 in0.0 mm 0.00 in0.0 mm
12:27 AM 86.5°F30.3°C 31.6°F-0.2°C 14% 10.1 mph SSW16.3 kmh SSW 14.1 mph22.7 kmh -338605.1 mb - 0.00 in0.0 mm 0.00 in0.0 mm
12:32 AM 86.9°F30.5°C 32.0°F0.0°C 14% 11.0 mph SSW17.7 kmh SSW 6.9 mph11.1 kmh -338605.1 mb - 0.00 in0.0 mm 0.00 in0.0 mm
12:37 AM 86.9°F30.5°C 32.0°F0.0°C 14% 11.0 mph SSW17.7 kmh SSW 16.1 mph25.9 kmh -338605.1 mb - 0.00 in0.0 mm 0.00 in0.0 mm
12:42 AM 87.1°F30.6°C 32.2°F0.1°C 14% 12.1 mph SSW19.5 kmh SSW 14.1 mph22.7 kmh -338605.1 mb - 0.00 in0.0 mm 0.00 in0.0 mm
12:47 AM 86.7°F30.4°C 31.8°F-0.1°C 14% 13.0 mph SW20.9 kmh SW 12.1 mph19.5 kmh -338605.1 mb - 0.00 in0.0 mm 0.00 in0.0 mm
12:52 AM 86.5°F30.3°C 31.6°F-0.2°C 14% 13.0 mph SW20.9 kmh SW 12.1 mph19.5 kmh -338605.1 mb - 0.00 in0.0 mm 0.00 in0.0 mm
12:57 AM 86.5°F30.3°C 31.6°F-0.2°C 14% 13.0 mph SW20.9 kmh SW 17.9 mph28.8 kmh -338605.1 mb - 0.00 in0.0 mm 0.00 in0.0 mm
01:02 AM 86.5°F30.3°C 33.4°F0.8°C 15% 11.0 mph SW17.7 kmh SW 11.0 mph17.7 kmh -338605.1 mb - 0.00 in0.0 mm 0.00 in0.0 mm
01:07 AM 86.0°F30.0°C 32.9°F0.5°C 15% 10.1 mph SW16.3 kmh SW 10.1 mph16.3 kmh -338605.1 mb - 0.00 in0.0 mm 0.00 in0.0 mm
01:12 AM 85.6°F29.8°C 32.7°F0.4°C 15% 11.0 mph S17.7 kmh S 12.1 mph19.5 kmh -338605.1 mb - 0.00 in0.0 mm 0.00 in0.0 mm
01:17 AM 85.6°F29.8°C 32.7°F0.4°C 15% 12.1 mph SW19.5 kmh SW 11.0 mph17.7 kmh -338605.1 mb - 0.00 in0.0 mm 0.00 in0.0 mm
01:22 AM 85.6°F29.8°C 32.7°F0.4°C 15% 11.0 mph SW17.7 kmh SW 11.0 mph17.7 kmh -338605.1 mb - 0.00 in0.0 mm 0.00 in0.0 mm
01:27 AM 85.5°F29.7°C 32.5°F0.3°C 15% 11.0 mph SSW17.7 kmh SSW 14.1 mph22.7 kmh -338605.1 mb - 0.00 in0.0 mm 0.00 in0.0 mm
01:32 AM 85.5°F29.7°C 32.5°F0.3°C 15% 12.1 mph SSW19.5 kmh SSW 10.1 mph16.3 kmh -338605.1 mb - 0.00 in0.0 mm 0.00 in0.0 mm
01:37 AM 85.3°F29.6°C 34.0°F1.1°C 16% 10.1 mph SW16.3 kmh SW 8.9 mph14.3 kmh -338605.1 mb - 0.00 in0.0 mm 0.00 in0.0 mm
01:42 AM 84.9°F29.4°C 33.8°F1.0°C 16% 8.9 mph SSW14.3 kmh SSW 15.0 mph24.1 kmh -338605.1 mb - 0.00 in0.0 mm 0.00 in0.0 mm
01:47 AM 84.9°F29.4°C 33.8°F1.0°C 16% 11.0 mph S17.7 kmh S 8.9 mph14.3 kmh -338605.1 mb - 0.00 in0.0 mm 0.00 in0.0 mm
01:52 AM 84.6°F29.2°C 34.9°F1.6°C 17% 11.0 mph S17.7 kmh S 11.0 mph17.7 kmh -338605.1 mb - 0.00 in0.0 mm 0.00 in0.0 mm
01:57 AM 84.6°F29.2°C 36.3°F2.4°C 18% 10.1 mph SW16.3 kmh SW 12.1 mph19.5 kmh -338605.1 mb - 0.00 in0.0 mm 0.00 in0.0 mm
02:02 AM 84.4°F29.1°C 36.3°F2.4°C 18% 10.1 mph S16.3 kmh S 2.9 mph4.7 kmh -338605.1 mb - 0.00 in0.0 mm 0.00 in0.0 mm
02:07 AM 84.0°F28.9°C 34.5°F1.4°C 17% 8.9 mph SW14.3 kmh SW 6.0 mph9.7 kmh -338605.1 mb - 0.00 in0.0 mm 0.00 in0.0 mm
02:12 AM 83.8°F28.8°C 34.3°F1.3°C 17% 8.9 mph SSW14.3 kmh SSW 6.9 mph11.1 kmh -338605.1 mb - 0.00 in0.0 mm 0.00 in0.0 mm
02:17 AM 83.7°F28.7°C 34.2°F1.2°C 17% 8.1 mph S13.0 kmh S 6.0 mph9.7 kmh -338605.1 mb - 0.00 in0.0 mm 0.00 in0.0 mm
02:22 AM 82.9°F28.3°C 35.1°F1.7°C 18% 4.9 mph SSW7.9 kmh SSW 6.0 mph9.7 kmh -338605.1 mb - 0.00 in0.0 mm 0.00 in0.0 mm
02:27 AM 82.6°F28.1°C 34.7°F1.5°C 18% 4.9 mph SW7.9 kmh SW 12.1 mph19.5 kmh -338605.1 mb - 0.00 in0.0 mm 0.00 in0.0 mm
02:32 AM 82.4°F28.0°C 34.7°F1.5°C 18% 8.1 mph SW13.0 kmh SW 6.0 mph9.7 kmh -338605.1 mb - 0.00 in0.0 mm 0.00 in0.0 mm
02:37 AM 82.2°F27.9°C 35.8°F2.1°C 19% 8.9 mph WSW14.3 kmh WSW 11.0 mph17.7 kmh -338605.1 mb - 0.00 in0.0 mm 0.00 in0.0 mm
02:42 AM 82.0°F27.8°C 35.8°F2.1°C 19% 8.9 mph SW14.3 kmh SW 4.0 mph6.4 kmh -338605.1 mb - 0.00 in0.0 mm 0.00 in0.0 mm
02:47 AM 81.9°F27.7°C 35.6°F2.0°C 19% 8.1 mph SW13.0 kmh SW 6.9 mph11.1 kmh -338605.1 mb - 0.00 in0.0 mm 0.00 in0.0 mm
02:52 AM 81.9°F27.7°C 35.6°F2.0°C 19% 6.9 mph SW11.1 kmh SW 6.9 mph11.1 kmh -338605.1 mb - 0.00 in0.0 mm 0.00 in0.0 mm
02:57 AM 82.0°F27.8°C 34.3°F1.3°C 18% 6.0 mph S9.7 kmh S 6.0 mph9.7 kmh -338605.1 mb - 0.00 in0.0 mm 0.00 in0.0 mm
03:02 AM 81.7°F27.6°C 34.0°F1.1°C 18% 4.9 mph SSW7.9 kmh SSW 4.0 mph6.4 kmh -338605.1 mb - 0.00 in0.0 mm 0.00 in0.0 mm
03:07 AM 81.3°F27.4°C 33.8°F1.0°C 18% 4.9 mph SW7.9 kmh SW 4.0 mph6.4 kmh -338605.1 mb - 0.00 in0.0 mm 0.00 in0.0 mm
03:12 AM 81.3°F27.4°C 33.8°F1.0°C 18% 4.0 mph SW6.4 kmh SW 4.0 mph6.4 kmh -338605.1 mb - 0.00 in0.0 mm 0.00 in0.0 mm
03:17 AM 81.0°F27.2°C 34.9°F1.6°C 19% 4.0 mph WSW6.4 kmh WSW 4.9 mph7.9 kmh -338605.1 mb - 0.00 in0.0 mm 0.00 in0.0 mm
03:22 AM 82.4°F28.0°C 34.7°F1.5°C 18% 4.9 mph WSW7.9 kmh WSW 4.0 mph6.4 kmh -338605.1 mb - 0.00 in0.0 mm 0.00 in0.0 mm
03:27 AM 81.9°F27.7°C 34.2°F1.2°C 18% 4.9 mph WSW7.9 kmh WSW 6.0 mph9.7 kmh -338605.1 mb - 0.00 in0.0 mm 0.00 in0.0 mm
03:32 AM 81.7°F27.6°C 34.0°F1.1°C 18% 4.0 mph W6.4 kmh W 2.0 mph3.2 kmh -338605.1 mb - 0.00 in0.0 mm 0.00 in0.0 mm
03:37 AM 81.5°F27.5°C 34.0°F1.1°C 18% 2.9 mph W4.7 kmh W 4.9 mph7.9 kmh -338605.1 mb - 0.00 in0.0 mm 0.00 in0.0 mm
03:42 AM 80.8°F27.1°C 31.8°F-0.1°C 17% 4.0 mph W6.4 kmh W 2.9 mph4.7 kmh -338605.1 mb - 0.00 in0.0 mm 0.00 in0.0 mm
03:47 AM 81.3°F27.4°C 32.4°F0.2°C 17% 4.0 mph W6.4 kmh W 4.0 mph6.4 kmh -338605.1 mb - 0.00 in0.0 mm 0.00 in0.0 mm
03:52 AM 80.8°F27.1°C 31.8°F-0.1°C 17% 4.0 mph W6.4 kmh W 4.9 mph7.9 kmh -338605.1 mb - 0.00 in0.0 mm 0.00 in0.0 mm
03:57 AM 80.4°F26.9°C 33.1°F0.6°C 18% 4.9 mph W7.9 kmh W 6.0 mph9.7 kmh -338605.1 mb - 0.00 in0.0 mm 0.00 in0.0 mm
04:02 AM 79.9°F26.6°C 34.0°F1.1°C 19% 6.0 mph W9.7 kmh W 4.9 mph7.9 kmh -338605.1 mb - 0.00 in0.0 mm 0.00 in0.0 mm
04:07 AM 79.2°F26.2°C 35.8°F2.1°C 21% 4.9 mph W7.9 kmh W -- -338605.1 mb - 0.00 in0.0 mm 0.00 in0.0 mm
04:12 AM 78.6°F25.9°C 35.4°F1.9°C 21% 2.0 mph W3.2 kmh W 0.9 mph1.4 kmh -338605.1 mb - 0.00 in0.0 mm 0.00 in0.0 mm
04:17 AM 79.5°F26.4°C 36.1°F2.3°C 21% 0.9 mph W1.4 kmh W 2.0 mph3.2 kmh -338605.1 mb - 0.00 in0.0 mm 0.00 in0.0 mm
04:22 AM 79.5°F26.4°C 36.1°F2.3°C 21% 2.0 mph W3.2 kmh W 2.0 mph3.2 kmh -338605.1 mb - 0.00 in0.0 mm 0.00 in0.0 mm
04:27 AM 79.5°F26.4°C 36.1°F2.3°C 21% 2.9 mph W4.7 kmh W 4.0 mph6.4 kmh -338605.1 mb - 0.00 in0.0 mm 0.00 in0.0 mm
04:32 AM 78.8°F26.0°C 35.6°F2.0°C 21% 4.0 mph W6.4 kmh W 4.9 mph7.9 kmh -338605.1 mb - 0.00 in0.0 mm 0.00 in0.0 mm
04:37 AM 79.5°F26.4°C 36.1°F2.3°C 21% 4.9 mph W7.9 kmh W 6.0 mph9.7 kmh -338605.1 mb - 0.00 in0.0 mm 0.00 in0.0 mm
04:42 AM 78.4°F25.8°C 35.2°F1.8°C 21% 4.9 mph W7.9 kmh W 4.9 mph7.9 kmh -338605.1 mb - 0.00 in0.0 mm 0.00 in0.0 mm
04:47 AM 78.3°F25.7°C 36.3°F2.4°C 22% 4.9 mph W7.9 kmh W 6.0 mph9.7 kmh -338605.1 mb - 0.00 in0.0 mm 0.00 in0.0 mm
04:52 AM 77.7°F25.4°C 35.8°F2.1°C 22% 6.0 mph WSW9.7 kmh WSW 6.0 mph9.7 kmh -338605.1 mb - 0.00 in0.0 mm 0.00 in0.0 mm
04:57 AM 78.6°F25.9°C 36.7°F2.6°C 22% 6.9 mph W11.1 kmh W 4.9 mph7.9 kmh -338605.1 mb - 0.00 in0.0 mm 0.00 in0.0 mm
05:02 AM 78.1°F25.6°C 37.2°F2.9°C 23% 6.0 mph WSW9.7 kmh WSW 4.0 mph6.4 kmh -338605.1 mb - 0.00 in0.0 mm 0.00 in0.0 mm
05:07 AM 77.5°F25.3°C 36.9°F2.7°C 23% 4.9 mph SW7.9 kmh SW 2.9 mph4.7 kmh -338605.1 mb - 0.00 in0.0 mm 0.00 in0.0 mm
05:12 AM 77.5°F25.3°C 35.8°F2.1°C 22% 4.9 mph SW7.9 kmh SW 4.9 mph7.9 kmh -338605.1 mb - 0.00 in0.0 mm 0.00 in0.0 mm
05:17 AM 77.7°F25.4°C 35.8°F2.1°C 22% 6.9 mph SW11.1 kmh SW 4.0 mph6.4 kmh -338605.1 mb - 0.00 in0.0 mm 0.00 in0.0 mm
05:22 AM 78.3°F25.7°C 35.1°F1.7°C 21% 6.9 mph SW11.1 kmh SW 4.9 mph7.9 kmh -338605.1 mb - 0.00 in0.0 mm 0.00 in0.0 mm
05:27 AM 78.3°F25.7°C 35.1°F1.7°C 21% 6.9 mph WSW11.1 kmh WSW 4.9 mph7.9 kmh -338605.1 mb - 0.00 in0.0 mm 0.00 in0.0 mm
05:32 AM 78.1°F25.6°C 34.9°F1.6°C 21% 8.1 mph SSW13.0 kmh SSW 6.0 mph9.7 kmh -338605.1 mb - 0.00 in0.0 mm 0.00 in0.0 mm
05:37 AM 78.3°F25.7°C 35.1°F1.7°C 21% 6.9 mph SW11.1 kmh SW 8.1 mph13.0 kmh -338605.1 mb - 0.00 in0.0 mm 0.00 in0.0 mm
05:42 AM 77.9°F25.5°C 34.9°F1.6°C 21% 8.1 mph SW13.0 kmh SW 6.0 mph9.7 kmh -338605.1 mb - 0.00 in0.0 mm 0.00 in0.0 mm
05:47 AM 78.3°F25.7°C 35.1°F1.7°C 21% 8.9 mph WSW14.3 kmh WSW 8.9 mph14.3 kmh -338605.1 mb - 0.00 in0.0 mm 0.00 in0.0 mm
05:52 AM 77.7°F25.4°C 35.8°F2.1°C 22% 8.1 mph WSW13.0 kmh WSW 6.0 mph9.7 kmh -338605.1 mb - 0.00 in0.0 mm 0.00 in0.0 mm
05:57 AM 77.4°F25.2°C 35.6°F2.0°C 22% 8.1 mph WSW13.0 kmh WSW 8.1 mph13.0 kmh -338605.1 mb - 0.00 in0.0 mm 0.00 in0.0 mm
06:02 AM 77.2°F25.1°C 35.4°F1.9°C 22% 6.9 mph WSW11.1 kmh WSW 8.1 mph13.0 kmh -338605.1 mb - 0.00 in0.0 mm 0.00 in0.0 mm
06:07 AM 77.2°F25.1°C 35.4°F1.9°C 22% 8.1 mph SW13.0 kmh SW 8.1 mph13.0 kmh -338605.1 mb - 0.00 in0.0 mm 0.00 in0.0 mm
06:12 AM 77.2°F25.1°C 35.4°F1.9°C 22% 8.1 mph WSW13.0 kmh WSW 6.9 mph11.1 kmh -338605.1 mb - 0.00 in0.0 mm 0.00 in0.0 mm
06:17 AM 77.5°F25.3°C 34.5°F1.4°C 21% 8.1 mph WSW13.0 kmh WSW 12.1 mph19.5 kmh -338605.1 mb - 0.00 in0.0 mm 0.00 in0.0 mm
06:22 AM 77.9°F25.5°C 34.9°F1.6°C 21% 8.1 mph WSW13.0 kmh WSW 8.1 mph13.0 kmh -338605.1 mb - 0.00 in0.0 mm 0.00 in0.0 mm
06:27 AM 77.7°F25.4°C 34.7°F1.5°C 21% 6.9 mph WSW11.1 kmh WSW 6.0 mph9.7 kmh -338605.1 mb - 0.00 in0.0 mm 0.00 in0.0 mm
06:32 AM 77.9°F25.5°C 34.9°F1.6°C 21% 4.9 mph WSW7.9 kmh WSW 6.9 mph11.1 kmh -338605.1 mb - 0.00 in0.0 mm 0.00 in0.0 mm
06:37 AM 77.5°F25.3°C 34.5°F1.4°C 21% 4.9 mph W7.9 kmh W 6.0 mph9.7 kmh -338605.1 mb - 0.00 in0.0 mm 0.00 in0.0 mm
06:42 AM 78.1°F25.6°C 34.9°F1.6°C 21% 4.9 mph WSW7.9 kmh WSW 6.9 mph11.1 kmh -338605.1 mb - 0.00 in0.0 mm 0.00 in0.0 mm
06:47 AM 78.3°F25.7°C 35.1°F1.7°C 21% 6.0 mph WSW9.7 kmh WSW 6.9 mph11.1 kmh -338605.1 mb - 0.00 in0.0 mm 0.00 in0.0 mm
06:52 AM 78.3°F25.7°C 35.1°F1.7°C 21% 4.9 mph WSW7.9 kmh WSW 6.0 mph9.7 kmh -338605.1 mb - 0.00 in0.0 mm 0.00 in0.0 mm
06:57 AM 79.0°F26.1°C 36.9°F2.7°C 22% 4.0 mph SSW6.4 kmh SSW 4.0 mph6.4 kmh -338605.1 mb - 0.00 in0.0 mm 0.00 in0.0 mm
07:02 AM 79.0°F26.1°C 36.9°F2.7°C 22% 2.9 mph SE4.7 kmh SE 2.0 mph3.2 kmh -338605.1 mb - 0.00 in0.0 mm 0.00 in0.0 mm
07:07 AM 79.0°F26.1°C 36.9°F2.7°C 22% 2.9 mph SE4.7 kmh SE 2.9 mph4.7 kmh -338605.1 mb - 0.00 in0.0 mm 0.00 in0.0 mm
07:12 AM 78.4°F25.8°C 36.5°F2.5°C 22% 2.9 mph SE4.7 kmh SE 0.9 mph1.4 kmh -338605.1 mb - 0.00 in0.0 mm 0.00 in0.0 mm
07:17 AM 78.6°F25.9°C 37.8°F3.2°C 23% 2.0 mph SE3.2 kmh SE 2.9 mph4.7 kmh -338605.1 mb - 0.00 in0.0 mm 0.00 in0.0 mm
07:22 AM 79.7°F26.5°C 38.7°F3.7°C 23% 2.0 mph SE3.2 kmh SE -- -338605.1 mb - 0.00 in0.0 mm 0.00 in0.0 mm
07:27 AM 79.5°F26.4°C 36.1°F2.3°C 21% 2.0 mph SE3.2 kmh SE 2.0 mph3.2 kmh -338605.1 mb - 0.00 in0.0 mm 0.00 in0.0 mm
07:32 AM 80.6°F27.0°C 37.0°F2.8°C 21% 0.9 mph SE1.4 kmh SE -- -338605.1 mb - 0.00 in0.0 mm 0.00 in0.0 mm
07:37 AM 80.4°F26.9°C 36.9°F2.7°C 21% 0.9 mph E1.4 kmh E -- -338605.1 mb - 0.00 in0.0 mm 0.00 in0.0 mm
07:42 AM 81.0°F27.2°C 36.1°F2.3°C 20% Calm Calm -- -338605.1 mb - 0.00 in0.0 mm 0.00 in0.0 mm
07:47 AM 81.9°F27.7°C 35.6°F2.0°C 19% Calm Calm 0.9 mph1.4 kmh -338605.1 mb - 0.00 in0.0 mm 0.00 in0.0 mm
07:52 AM 82.8°F28.2°C 36.3°F2.4°C 19% 0.9 mph E1.4 kmh E 0.9 mph1.4 kmh -338605.1 mb - 0.00 in0.0 mm 0.00 in0.0 mm
07:57 AM 82.9°F28.3°C 37.8°F3.2°C 20% 0.9 mph E1.4 kmh E 0.9 mph1.4 kmh -338605.1 mb - 0.00 in0.0 mm 0.00 in0.0 mm
08:02 AM 83.7°F28.7°C 37.0°F2.8°C 19% 0.9 mph E1.4 kmh E 0.9 mph1.4 kmh -338605.1 mb - 0.00 in0.0 mm 0.00 in0.0 mm
08:07 AM 84.0°F28.9°C 36.0°F2.2°C 18% 0.9 mph ENE1.4 kmh ENE 0.9 mph1.4 kmh -338605.1 mb - 0.00 in0.0 mm 0.00 in0.0 mm
08:12 AM 84.4°F29.1°C 36.3°F2.4°C 18% 0.9 mph ENE1.4 kmh ENE 0.9 mph1.4 kmh -338605.1 mb - 0.00 in0.0 mm 0.00 in0.0 mm
08:17 AM 85.3°F29.6°C 37.0°F2.8°C 18% 0.9 mph ENE1.4 kmh ENE -- -338605.1 mb - 0.00 in0.0 mm 0.00 in0.0 mm
08:22 AM 85.6°F29.8°C 35.8°F2.1°C 17% 0.9 mph ENE1.4 kmh ENE 0.9 mph1.4 kmh -338605.1 mb - 0.00 in0.0 mm 0.00 in0.0 mm
08:27 AM 86.5°F30.3°C 36.5°F2.5°C 17% 0.9 mph ENE1.4 kmh ENE 0.9 mph1.4 kmh -338605.1 mb - 0.00 in0.0 mm 0.00 in0.0 mm
08:32 AM 87.1°F30.6°C 35.4°F1.9°C 16% 0.9 mph ENE1.4 kmh ENE 0.9 mph1.4 kmh -338605.1 mb - 0.00 in0.0 mm 0.00 in0.0 mm
08:37 AM 88.0°F31.1°C 34.5°F1.4°C 15% 0.9 mph ENE1.4 kmh ENE 0.9 mph1.4 kmh -338605.1 mb - 0.00 in0.0 mm 0.00 in0.0 mm
08:42 AM 88.3°F31.3°C 34.9°F1.6°C 15% Calm Calm -- -338605.1 mb - 0.00 in0.0 mm 0.00 in0.0 mm
08:47 AM 88.3°F31.3°C 34.9°F1.6°C 15% Calm Calm 0.9 mph1.4 kmh -338605.1 mb - 0.00 in0.0 mm 0.00 in0.0 mm
08:52 AM 88.9°F31.6°C 35.2°F1.8°C 15% Calm Calm -- -338605.1 mb - 0.00 in0.0 mm 0.00 in0.0 mm
08:57 AM 90.7°F32.6°C 36.7°F2.6°C 15% 0.9 mph ENE1.4 kmh ENE 2.9 mph4.7 kmh -338605.1 mb - 0.00 in0.0 mm 0.00 in0.0 mm
09:02 AM 91.8°F33.2°C 35.8°F2.1°C 14% 0.9 mph ENE1.4 kmh ENE 2.0 mph3.2 kmh -338605.1 mb - 0.00 in0.0 mm 0.00 in0.0 mm
09:07 AM 91.6°F33.1°C 37.4°F3.0°C 15% 2.0 mph ENE3.2 kmh ENE 4.0 mph6.4 kmh -338605.1 mb - 0.00 in0.0 mm 0.00 in0.0 mm
09:12 AM 91.2°F32.9°C 35.4°F1.9°C 14% 2.9 mph NNE4.7 kmh NNE 2.9 mph4.7 kmh -338605.1 mb - 0.00 in0.0 mm 0.00 in0.0 mm
09:17 AM 91.2°F32.9°C 35.4°F1.9°C 14% 2.9 mph NNE4.7 kmh NNE 2.9 mph4.7 kmh -338605.1 mb - 0.00 in0.0 mm 0.00 in0.0 mm
09:22 AM 91.8°F33.2°C 35.8°F2.1°C 14% 2.9 mph NE4.7 kmh NE 2.9 mph4.7 kmh -338605.1 mb - 0.00 in0.0 mm 0.00 in0.0 mm
09:27 AM 90.1°F32.3°C 34.5°F1.4°C 14% 2.9 mph NNE4.7 kmh NNE 0.9 mph1.4 kmh -338605.1 mb - 0.00 in0.0 mm 0.00 in0.0 mm
09:32 AM 91.2°F32.9°C 35.4°F1.9°C 14% 2.0 mph NNE3.2 kmh NNE 2.9 mph4.7 kmh -338605.1 mb - 0.00 in0.0 mm 0.00 in0.0 mm
09:37 AM 91.0°F32.8°C 35.2°F1.8°C 14% 2.9 mph NNE4.7 kmh NNE 0.9 mph1.4 kmh -338605.1 mb - 0.00 in0.0 mm 0.00 in0.0 mm
09:42 AM 91.2°F32.9°C 35.4°F1.9°C 14% 2.0 mph NNE3.2 kmh NNE -- -338605.1 mb - 0.00 in0.0 mm 0.00 in0.0 mm
09:47 AM 91.6°F33.1°C 33.8°F1.0°C 13% 2.0 mph NNE3.2 kmh NNE 0.9 mph1.4 kmh -338605.1 mb - 0.00 in0.0 mm 0.00 in0.0 mm
09:52 AM 92.1°F33.4°C 34.2°F1.2°C 13% 0.9 mph NNE1.4 kmh NNE 2.0 mph3.2 kmh -338605.1 mb - 0.00 in0.0 mm 0.00 in0.0 mm
09:57 AM 92.5°F33.6°C 34.5°F1.4°C 13% 0.9 mph NNE1.4 kmh NNE -- -338605.1 mb - 0.00 in0.0 mm 0.00 in0.0 mm
10:02 AM 93.9°F34.4°C 35.6°F2.0°C 13% 0.9 mph NNE1.4 kmh NNE 0.9 mph1.4 kmh -338605.1 mb - 0.00 in0.0 mm 0.00 in0.0 mm
10:07 AM 93.0°F33.9°C 34.9°F1.6°C 13% 0.9 mph NNE1.4 kmh NNE 0.9 mph1.4 kmh -338605.1 mb - 0.00 in0.0 mm 0.00 in0.0 mm
10:12 AM 93.7°F34.3°C 33.4°F0.8°C 12% 0.9 mph NNE1.4 kmh NNE -- -338605.1 mb - 0.00 in0.0 mm 0.00 in0.0 mm
10:17 AM 93.7°F34.3°C 33.4°F0.8°C 12% 0.9 mph NNE1.4 kmh NNE 0.9 mph1.4 kmh -338605.1 mb - 0.00 in0.0 mm 0.00 in0.0 mm
10:22 AM 94.3°F34.6°C 33.8°F1.0°C 12% 0.9 mph NNE1.4 kmh NNE 2.0 mph3.2 kmh -338605.1 mb - 0.00 in0.0 mm 0.00 in0.0 mm
10:27 AM 94.3°F34.6°C 33.8°F1.0°C 12% 2.0 mph NNE3.2 kmh NNE 0.9 mph1.4 kmh -338605.1 mb - 0.00 in0.0 mm 0.00 in0.0 mm
10:32 AM 94.6°F34.8°C 34.2°F1.2°C 12% 0.9 mph NNE1.4 kmh NNE 0.9 mph1.4 kmh -338605.1 mb - 0.00 in0.0 mm 0.00 in0.0 mm
10:37 AM 95.4°F35.2°C 34.7°F1.5°C 12% 0.9 mph NNE1.4 kmh NNE 4.0 mph6.4 kmh -338605.1 mb - 0.00 in0.0 mm 0.00 in0.0 mm
10:42 AM 96.6°F35.9°C 33.4°F0.8°C 11% 0.9 mph NNE1.4 kmh NNE -- -338605.1 mb - 0.00 in0.0 mm 0.00 in0.0 mm
10:47 AM 96.6°F35.9°C 33.4°F0.8°C 11% 0.9 mph NNE1.4 kmh NNE 0.9 mph1.4 kmh -338605.1 mb - 0.00 in0.0 mm 0.00 in0.0 mm
10:52 AM 96.4°F35.8°C 35.6°F2.0°C 12% 0.9 mph NNE1.4 kmh NNE 0.9 mph1.4 kmh -338605.1 mb - 0.00 in0.0 mm 0.00 in0.0 mm
10:57 AM 96.6°F35.9°C 33.4°F0.8°C 11% 0.9 mph NW1.4 kmh NW 4.0 mph6.4 kmh -338605.1 mb - 0.00 in0.0 mm 0.00 in0.0 mm
11:02 AM 96.3°F35.7°C 30.9°F-0.6°C 10% 2.0 mph NW3.2 kmh NW 2.0 mph3.2 kmh -338605.1 mb - 0.00 in0.0 mm 0.00 in0.0 mm
11:07 AM 97.3°F36.3°C 31.6°F-0.2°C 10% 2.0 mph NW3.2 kmh NW -- -338605.1 mb - 0.00 in0.0 mm 0.00 in0.0 mm
11:12 AM 97.5°F36.4°C 29.3°F-1.5°C 9% 2.0 mph NW3.2 kmh NW 2.0 mph3.2 kmh -338605.1 mb - 0.00 in0.0 mm 0.00 in0.0 mm
11:17 AM 97.7°F36.5°C 29.3°F-1.5°C 9% 2.0 mph NW3.2 kmh NW -- -338605.1 mb - 0.00 in0.0 mm 0.00 in0.0 mm
11:22 AM 99.0°F37.2°C 30.4°F-0.9°C 9% 0.9 mph NW1.4 kmh NW 0.9 mph1.4 kmh -338605.1 mb - 0.00 in0.0 mm 0.00 in0.0 mm
11:27 AM 100.8°F38.2°C 28.8°F-1.8°C 8% 2.0 mph SE3.2 kmh SE -- -338605.1 mb - 0.00 in0.0 mm 0.00 in0.0 mm
11:32 AM 98.8°F37.1°C 27.3°F-2.6°C 8% 2.0 mph E3.2 kmh E 0.9 mph1.4 kmh -338605.1 mb - 0.00 in0.0 mm 0.00 in0.0 mm
11:37 AM 100.0°F37.8°C 28.2°F-2.1°C 8% 0.9 mph E1.4 kmh E 4.9 mph7.9 kmh -338605.1 mb - 0.00 in0.0 mm 0.00 in0.0 mm
11:42 AM 101.3°F38.5°C 29.1°F-1.6°C 8% 0.9 mph ESE1.4 kmh ESE 0.9 mph1.4 kmh -338605.1 mb - 0.00 in0.0 mm 0.00 in0.0 mm
11:47 AM 101.5°F38.6°C 29.3°F-1.5°C 8% 2.0 mph SE3.2 kmh SE 4.0 mph6.4 kmh -338605.1 mb - 0.00 in0.0 mm 0.00 in0.0 mm
11:52 AM 101.3°F38.5°C 25.9°F-3.4°C 7% 2.0 mph SSE3.2 kmh SSE 0.9 mph1.4 kmh -338605.1 mb - 0.00 in0.0 mm 0.00 in0.0 mm
11:57 AM 101.3°F38.5°C 25.9°F-3.4°C 7% 2.0 mph SSE3.2 kmh SSE 4.0 mph6.4 kmh -338605.1 mb - 0.00 in0.0 mm 0.00 in0.0 mm
12:02 PM 102.6°F39.2°C 23.2°F-4.9°C 6% 4.0 mph SE6.4 kmh SE 2.9 mph4.7 kmh -338605.1 mb - 0.00 in0.0 mm 0.00 in0.0 mm
12:07 PM 104.0°F40.0°C 19.8°F-6.8°C 5% 6.0 mph SE9.7 kmh SE 6.9 mph11.1 kmh -338605.1 mb - 0.00 in0.0 mm 0.00 in0.0 mm
12:12 PM 104.0°F40.0°C 24.1°F-4.4°C 6% 6.9 mph SE11.1 kmh SE 10.1 mph16.3 kmh -338605.1 mb - 0.00 in0.0 mm 0.00 in0.0 mm
12:17 PM 103.6°F39.8°C 23.9°F-4.5°C 6% 6.9 mph SW11.1 kmh SW 2.0 mph3.2 kmh -338605.1 mb - 0.00 in0.0 mm 0.00 in0.0 mm
12:22 PM 103.8°F39.9°C 19.8°F-6.8°C 5% 6.0 mph SW9.7 kmh SW 6.0 mph9.7 kmh -338605.1 mb - 0.00 in0.0 mm 0.00 in0.0 mm
12:27 PM 103.8°F39.9°C 24.1°F-4.4°C 6% 6.0 mph SW9.7 kmh SW 4.9 mph7.9 kmh -338605.1 mb - 0.00 in0.0 mm 0.00 in0.0 mm
12:32 PM 104.4°F40.2°C 14.9°F-9.5°C 4% 8.1 mph SW13.0 kmh SW 6.9 mph11.1 kmh -338605.1 mb - 0.00 in0.0 mm 0.00 in0.0 mm
12:37 PM 103.8°F39.9°C 14.5°F-9.7°C 4% 6.9 mph S11.1 kmh S 2.9 mph4.7 kmh -338605.1 mb - 0.00 in0.0 mm 0.00 in0.0 mm
12:42 PM 104.2°F40.1°C 14.7°F-9.6°C 4% 6.0 mph S9.7 kmh S 8.9 mph14.3 kmh -338605.1 mb - 0.00 in0.0 mm 0.00 in0.0 mm
12:47 PM 104.5°F40.3°C 15.1°F-9.4°C 4% 8.1 mph SSW13.0 kmh SSW 6.9 mph11.1 kmh -338605.1 mb - 0.00 in0.0 mm 0.00 in0.0 mm
12:52 PM 104.7°F40.4°C 20.3°F-6.5°C 5% 8.9 mph S14.3 kmh S 4.0 mph6.4 kmh -338605.1 mb - 0.00 in0.0 mm 0.00 in0.0 mm
12:57 PM 104.2°F40.1°C 14.7°F-9.6°C 4% 6.0 mph SSE9.7 kmh SSE 4.9 mph7.9 kmh -338605.1 mb - 0.00 in0.0 mm 0.00 in0.0 mm
01:02 PM 104.5°F40.3°C 15.1°F-9.4°C 4% 4.0 mph ESE6.4 kmh ESE 2.9 mph4.7 kmh -338605.1 mb - 0.00 in0.0 mm 0.00 in0.0 mm
01:07 PM 106.3°F41.3°C 16.2°F-8.8°C 4% 4.0 mph SE6.4 kmh SE 4.9 mph7.9 kmh -338605.1 mb - 0.00 in0.0 mm 0.00 in0.0 mm
01:12 PM 106.3°F41.3°C 16.2°F-8.8°C 4% 6.0 mph S9.7 kmh S 2.9 mph4.7 kmh -338605.1 mb - 0.00 in0.0 mm 0.00 in0.0 mm
01:17 PM 106.5°F41.4°C 16.3°F-8.7°C 4% 8.1 mph S13.0 kmh S 12.1 mph19.5 kmh -338605.1 mb - 0.00 in0.0 mm 0.00 in0.0 mm
01:22 PM 107.4°F41.9°C 10.4°F-12.0°C 3% 10.1 mph S16.3 kmh S 17.0 mph27.4 kmh -338605.1 mb - 0.00 in0.0 mm 0.00 in0.0 mm
01:27 PM 107.1°F41.7°C 10.2°F-12.1°C 3% 11.0 mph SSE17.7 kmh SSE 6.9 mph11.1 kmh -338605.1 mb - 0.00 in0.0 mm 0.00 in0.0 mm
01:32 PM 106.9°F41.6°C 10.0°F-12.2°C 3% 13.0 mph S20.9 kmh S 17.9 mph28.8 kmh -338605.1 mb - 0.00 in0.0 mm 0.00 in0.0 mm
01:37 PM 106.3°F41.3°C 9.7°F-12.4°C 3% 13.0 mph SSE20.9 kmh SSE 8.1 mph13.0 kmh -338605.1 mb - 0.00 in0.0 mm 0.00 in0.0 mm
01:42 PM 107.2°F41.8°C 10.2°F-12.1°C 3% 14.1 mph SSE22.7 kmh SSE 17.0 mph27.4 kmh -338605.1 mb - 0.00 in0.0 mm 0.00 in0.0 mm
01:47 PM 107.1°F41.7°C 16.7°F-8.5°C 4% 14.1 mph SW22.7 kmh SW 8.9 mph14.3 kmh -338605.1 mb - 0.00 in0.0 mm 0.00 in0.0 mm
01:52 PM 107.4°F41.9°C 10.4°F-12.0°C 3% 13.0 mph S20.9 kmh S 17.0 mph27.4 kmh -338605.1 mb - 0.00 in0.0 mm 0.00 in0.0 mm
01:57 PM 107.4°F41.9°C 10.4°F-12.0°C 3% 13.0 mph S20.9 kmh S 17.9 mph28.8 kmh -338605.1 mb - 0.00 in0.0 mm 0.00 in0.0 mm
02:02 PM 107.4°F41.9°C 1.6°F-16.9°C 2% 14.1 mph S22.7 kmh S 14.1 mph22.7 kmh -338605.1 mb - 0.00 in0.0 mm 0.00 in0.0 mm
02:07 PM 107.8°F42.1°C 10.6°F-11.9°C 3% 14.1 mph SW22.7 kmh SW 14.1 mph22.7 kmh -338605.1 mb - 0.00 in0.0 mm 0.00 in0.0 mm
02:12 PM 107.6°F42.0°C 10.6°F-11.9°C 3% 13.0 mph S20.9 kmh S 16.1 mph25.9 kmh -338605.1 mb - 0.00 in0.0 mm 0.00 in0.0 mm
02:17 PM 108.0°F42.2°C 10.8°F-11.8°C 3% 14.1 mph SSW22.7 kmh SSW 17.0 mph27.4 kmh -338605.1 mb - 0.00 in0.0 mm 0.00 in0.0 mm
02:22 PM 108.0°F42.2°C 10.8°F-11.8°C 3% 14.1 mph SSW22.7 kmh SSW 17.9 mph28.8 kmh -338605.1 mb - 0.00 in0.0 mm 0.00 in0.0 mm
02:27 PM 108.0°F42.2°C 10.8°F-11.8°C 3% 15.0 mph S24.1 kmh S 8.1 mph13.0 kmh -338605.1 mb - 0.00 in0.0 mm 0.00 in0.0 mm
02:32 PM 108.3°F42.4°C 17.6°F-8.0°C 4% 16.1 mph S25.9 kmh S 16.1 mph25.9 kmh -338605.1 mb - 0.00 in0.0 mm 0.00 in0.0 mm
02:37 PM 108.0°F42.2°C 17.2°F-8.2°C 4% 17.9 mph S28.8 kmh S 21.9 mph35.2 kmh -338605.1 mb - 0.00 in0.0 mm 0.00 in0.0 mm
02:42 PM 107.8°F42.1°C 17.2°F-8.2°C 4% 17.9 mph SSW28.8 kmh SSW 10.1 mph16.3 kmh -338605.1 mb - 0.00 in0.0 mm 0.00 in0.0 mm
02:47 PM 107.4°F41.9°C 16.9°F-8.4°C 4% 19.0 mph S30.6 kmh S 19.9 mph32.0 kmh -338605.1 mb - 0.00 in0.0 mm 0.00 in0.0 mm
02:52 PM 108.0°F42.2°C 17.2°F-8.2°C 4% 19.0 mph S30.6 kmh S 21.0 mph33.8 kmh -338605.1 mb - 0.00 in0.0 mm 0.00 in0.0 mm
02:57 PM 107.4°F41.9°C 16.9°F-8.4°C 4% 19.0 mph S30.6 kmh S 12.1 mph19.5 kmh -338605.1 mb - 0.00 in0.0 mm 0.00 in0.0 mm
03:02 PM 107.8°F42.1°C 17.2°F-8.2°C 4% 17.9 mph S28.8 kmh S 21.9 mph35.2 kmh -338605.1 mb - 0.00 in0.0 mm 0.00 in0.0 mm
03:07 PM 107.6°F42.0°C 17.1°F-8.3°C 4% 17.9 mph S28.8 kmh S 23.9 mph38.5 kmh -338605.1 mb - 0.00 in0.0 mm 0.00 in0.0 mm
03:12 PM 107.8°F42.1°C 17.2°F-8.2°C 4% 19.9 mph S32.0 kmh S 16.1 mph25.9 kmh -338605.1 mb - 0.00 in0.0 mm 0.00 in0.0 mm
03:17 PM 108.0°F42.2°C 17.2°F-8.2°C 4% 19.9 mph SSW32.0 kmh SSW 29.1 mph46.8 kmh -338605.1 mb - 0.00 in0.0 mm 0.00 in0.0 mm
03:22 PM 107.8°F42.1°C 17.2°F-8.2°C 4% 19.0 mph S30.6 kmh S 14.1 mph22.7 kmh -338605.1 mb - 0.00 in0.0 mm 0.00 in0.0 mm
03:27 PM 107.4°F41.9°C 16.9°F-8.4°C 4% 19.9 mph S32.0 kmh S 21.0 mph33.8 kmh -338605.1 mb - 0.00 in0.0 mm 0.00 in0.0 mm
03:32 PM 107.4°F41.9°C 16.9°F-8.4°C 4% 21.0 mph SSW33.8 kmh SSW 10.1 mph16.3 kmh -338605.1 mb - 0.00 in0.0 mm 0.00 in0.0 mm
03:37 PM 107.8°F42.1°C 17.2°F-8.2°C 4% 19.9 mph S32.0 kmh S 13.0 mph20.9 kmh -338605.1 mb - 0.00 in0.0 mm 0.00 in0.0 mm
03:42 PM 108.1°F42.3°C 17.4°F-8.1°C 4% 19.9 mph S32.0 kmh S 23.0 mph37.0 kmh -338605.1 mb - 0.00 in0.0 mm 0.00 in0.0 mm
03:47 PM 107.8°F42.1°C 17.2°F-8.2°C 4% 19.9 mph SSW32.0 kmh SSW 28.0 mph45.1 kmh -338605.1 mb - 0.00 in0.0 mm 0.00 in0.0 mm
03:52 PM 107.8°F42.1°C 17.2°F-8.2°C 4% 19.0 mph SSW30.6 kmh SSW 10.1 mph16.3 kmh -338605.1 mb - 0.00 in0.0 mm 0.00 in0.0 mm
03:57 PM 107.8°F42.1°C 17.2°F-8.2°C 4% 17.9 mph S28.8 kmh S 15.0 mph24.1 kmh -338605.1 mb - 0.00 in0.0 mm 0.00 in0.0 mm
04:02 PM 107.8°F42.1°C 22.5°F-5.3°C 5% 17.9 mph SSW28.8 kmh SSW 15.0 mph24.1 kmh -338605.1 mb - 0.00 in0.0 mm 0.00 in0.0 mm
04:07 PM 107.8°F42.1°C 17.2°F-8.2°C 4% 19.0 mph S30.6 kmh S 19.0 mph30.6 kmh -338605.1 mb - 0.00 in0.0 mm 0.00 in0.0 mm
04:12 PM 107.8°F42.1°C 22.5°F-5.3°C 5% 19.9 mph S32.0 kmh S 21.9 mph35.2 kmh -338605.1 mb - 0.00 in0.0 mm 0.00 in0.0 mm
04:17 PM 107.8°F42.1°C 22.5°F-5.3°C 5% 17.9 mph S28.8 kmh S 28.0 mph45.1 kmh -338605.1 mb - 0.00 in0.0 mm 0.00 in0.0 mm
04:22 PM 108.0°F42.2°C 17.2°F-8.2°C 4% 19.0 mph SW30.6 kmh SW 12.1 mph19.5 kmh -338605.1 mb - 0.00 in0.0 mm 0.00 in0.0 mm
04:27 PM 107.8°F42.1°C 17.2°F-8.2°C 4% 19.0 mph S30.6 kmh S 28.0 mph45.1 kmh -338605.1 mb - 0.00 in0.0 mm 0.00 in0.0 mm
04:32 PM 107.8°F42.1°C 22.5°F-5.3°C 5% 19.0 mph S30.6 kmh S 21.0 mph33.8 kmh -338605.1 mb - 0.00 in0.0 mm 0.00 in0.0 mm
04:37 PM 108.0°F42.2°C 17.2°F-8.2°C 4% 19.0 mph S30.6 kmh S 13.0 mph20.9 kmh -338605.1 mb - 0.00 in0.0 mm 0.00 in0.0 mm
04:42 PM 107.4°F41.9°C 16.9°F-8.4°C 4% 19.9 mph S32.0 kmh S 31.1 mph50.1 kmh -338605.1 mb - 0.00 in0.0 mm 0.00 in0.0 mm
04:47 PM 107.2°F41.8°C 16.9°F-8.4°C 4% 21.0 mph SW33.8 kmh SW 27.1 mph43.6 kmh -338605.1 mb - 0.00 in0.0 mm 0.00 in0.0 mm
04:52 PM 107.4°F41.9°C 16.9°F-8.4°C 4% 19.9 mph S32.0 kmh S 19.0 mph30.6 kmh -338605.1 mb - 0.00 in0.0 mm 0.00 in0.0 mm
04:57 PM 107.4°F41.9°C 10.4°F-12.0°C 3% 19.0 mph S30.6 kmh S 25.1 mph40.4 kmh -338605.1 mb - 0.00 in0.0 mm 0.00 in0.0 mm
05:02 PM 108.1°F42.3°C 1.9°F-16.7°C 2% 17.9 mph SW28.8 kmh SW 13.0 mph20.9 kmh -338605.1 mb - 0.00 in0.0 mm 0.00 in0.0 mm
05:07 PM 107.8°F42.1°C 1.8°F-16.8°C 2% 16.1 mph SSW25.9 kmh SSW 14.1 mph22.7 kmh -338605.1 mb - 0.00 in0.0 mm 0.00 in0.0 mm
05:12 PM 108.0°F42.2°C 1.9°F-16.7°C 2% 16.1 mph SSW25.9 kmh SSW 14.1 mph22.7 kmh -338605.1 mb - 0.00 in0.0 mm 0.00 in0.0 mm
05:17 PM 107.6°F42.0°C 1.6°F-16.9°C 2% 16.1 mph S25.9 kmh S 6.0 mph9.7 kmh -338605.1 mb - 0.00 in0.0 mm 0.00 in0.0 mm
05:22 PM 108.0°F42.2°C 1.9°F-16.7°C 2% 16.1 mph SSW25.9 kmh SSW 15.0 mph24.1 kmh -338605.1 mb - 0.00 in0.0 mm 0.00 in0.0 mm
05:27 PM 108.5°F42.5°C 11.1°F-11.6°C 3% 14.1 mph WSW22.7 kmh WSW 11.0 mph17.7 kmh -338605.1 mb - 0.00 in0.0 mm 0.00 in0.0 mm
05:32 PM 107.8°F42.1°C 10.6°F-11.9°C 3% 12.1 mph WSW19.5 kmh WSW 15.0 mph24.1 kmh -338605.1 mb - 0.00 in0.0 mm 0.00 in0.0 mm
05:37 PM 107.4°F41.9°C 10.4°F-12.0°C 3% 15.0 mph WSW24.1 kmh WSW 21.9 mph35.2 kmh -338605.1 mb - 0.00 in0.0 mm 0.00 in0.0 mm
05:42 PM 107.1°F41.7°C 10.2°F-12.1°C 3% 17.0 mph W27.4 kmh W 16.1 mph25.9 kmh -338605.1 mb - 0.00 in0.0 mm 0.00 in0.0 mm
05:47 PM 107.1°F41.7°C 10.2°F-12.1°C 3% 17.0 mph SW27.4 kmh SW 17.0 mph27.4 kmh -338605.1 mb - 0.00 in0.0 mm 0.00 in0.0 mm
05:52 PM 106.7°F41.5°C 9.9°F-12.3°C 3% 16.1 mph W25.9 kmh W 16.1 mph25.9 kmh -338605.1 mb - 0.00 in0.0 mm 0.00 in0.0 mm
05:57 PM 106.9°F41.6°C 10.0°F-12.2°C 3% 16.1 mph WSW25.9 kmh WSW 17.9 mph28.8 kmh -338605.1 mb - 0.00 in0.0 mm 0.00 in0.0 mm
06:02 PM 106.3°F41.3°C 9.7°F-12.4°C 3% 17.0 mph WSW27.4 kmh WSW 16.1 mph25.9 kmh -338605.1 mb - 0.00 in0.0 mm 0.00 in0.0 mm
06:07 PM 106.0°F41.1°C 9.5°F-12.5°C 3% 17.9 mph WSW28.8 kmh WSW 11.0 mph17.7 kmh -338605.1 mb - 0.00 in0.0 mm 0.00 in0.0 mm
06:12 PM 105.6°F40.9°C 9.3°F-12.6°C 3% 17.0 mph WSW27.4 kmh WSW 19.0 mph30.6 kmh -338605.1 mb - 0.00 in0.0 mm 0.00 in0.0 mm
06:17 PM 105.4°F40.8°C 15.6°F-9.1°C 4% 17.9 mph WSW28.8 kmh WSW 15.0 mph24.1 kmh -338605.1 mb - 0.00 in0.0 mm 0.00 in0.0 mm
06:22 PM 105.1°F40.6°C 15.4°F-9.2°C 4% 17.9 mph WSW28.8 kmh WSW 21.9 mph35.2 kmh -338605.1 mb - 0.00 in0.0 mm 0.00 in0.0 mm
06:27 PM 104.4°F40.2°C 8.4°F-13.1°C 3% 17.9 mph WSW28.8 kmh WSW 15.0 mph24.1 kmh -338605.1 mb - 0.00 in0.0 mm 0.00 in0.0 mm
06:32 PM 104.2°F40.1°C 14.7°F-9.6°C 4% 17.9 mph WSW28.8 kmh WSW 14.1 mph22.7 kmh -338605.1 mb - 0.00 in0.0 mm 0.00 in0.0 mm
06:37 PM 103.3°F39.6°C 7.7°F-13.5°C 3% 19.0 mph WSW30.6 kmh WSW 11.0 mph17.7 kmh -338605.1 mb - 0.00 in0.0 mm 0.00 in0.0 mm
06:42 PM 103.3°F39.6°C 14.2°F-9.9°C 4% 19.0 mph SW30.6 kmh SW 16.1 mph25.9 kmh -338605.1 mb - 0.00 in0.0 mm 0.00 in0.0 mm
06:47 PM 103.3°F39.6°C 14.2°F-9.9°C 4% 17.9 mph WSW28.8 kmh WSW 17.0 mph27.4 kmh -338605.1 mb - 0.00 in0.0 mm 0.00 in0.0 mm
06:52 PM 102.7°F39.3°C 13.8°F-10.1°C 4% 17.9 mph WSW28.8 kmh WSW 15.0 mph24.1 kmh -338605.1 mb - 0.00 in0.0 mm 0.00 in0.0 mm
06:57 PM 102.6°F39.2°C 13.6°F-10.2°C 4% 17.9 mph WSW28.8 kmh WSW 19.0 mph30.6 kmh -338605.1 mb - 0.00 in0.0 mm 0.00 in0.0 mm
07:02 PM 102.2°F39.0°C 18.5°F-7.5°C 5% 17.0 mph WSW27.4 kmh WSW 12.1 mph19.5 kmh -338605.1 mb - 0.00 in0.0 mm 0.00 in0.0 mm
07:07 PM 101.8°F38.8°C 18.3°F-7.6°C 5% 17.9 mph WSW28.8 kmh WSW 21.0 mph33.8 kmh -338605.1 mb - 0.00 in0.0 mm 0.00 in0.0 mm
07:12 PM 101.7°F38.7°C 22.5°F-5.3°C 6% 19.0 mph SW30.6 kmh SW 15.0 mph24.1 kmh -338605.1 mb - 0.00 in0.0 mm 0.00 in0.0 mm
07:17 PM 101.5°F38.6°C 18.1°F-7.7°C 5% 19.0 mph SW30.6 kmh SW 19.9 mph32.0 kmh -338605.1 mb - 0.00 in0.0 mm 0.00 in0.0 mm
07:22 PM 100.9°F38.3°C 17.6°F-8.0°C 5% 16.1 mph SW25.9 kmh SW 25.9 mph41.7 kmh -338605.1 mb - 0.00 in0.0 mm 0.00 in0.0 mm
07:27 PM 100.6°F38.1°C 17.4°F-8.1°C 5% 17.0 mph SW27.4 kmh SW 21.9 mph35.2 kmh -338605.1 mb - 0.00 in0.0 mm 0.00 in0.0 mm
07:32 PM 100.0°F37.8°C 17.1°F-8.3°C 5% 17.9 mph SW28.8 kmh SW 17.9 mph28.8 kmh -338605.1 mb - 0.00 in0.0 mm 0.00 in0.0 mm
07:37 PM 99.3°F37.4°C 20.8°F-6.2°C 6% 17.9 mph WSW28.8 kmh WSW 15.0 mph24.1 kmh -338605.1 mb - 0.00 in0.0 mm 0.00 in0.0 mm
07:42 PM 99.1°F37.3°C 20.7°F-6.3°C 6% 17.0 mph SW27.4 kmh SW 17.0 mph27.4 kmh -338605.1 mb - 0.00 in0.0 mm 0.00 in0.0 mm
07:47 PM 98.8°F37.1°C 20.5°F-6.4°C 6% 15.0 mph WSW24.1 kmh WSW 15.0 mph24.1 kmh -338605.1 mb - 0.00 in0.0 mm 0.00 in0.0 mm
07:52 PM 98.4°F36.9°C 20.1°F-6.6°C 6% 16.1 mph WSW25.9 kmh WSW 19.0 mph30.6 kmh -338605.1 mb - 0.00 in0.0 mm 0.00 in0.0 mm
07:57 PM 97.9°F36.6°C 19.8°F-6.8°C 6% 17.0 mph WSW27.4 kmh WSW 17.9 mph28.8 kmh -338605.1 mb - 0.00 in0.0 mm 0.00 in0.0 mm
08:02 PM 97.3°F36.3°C 19.4°F-7.0°C 6% 17.0 mph WSW27.4 kmh WSW 19.0 mph30.6 kmh -338605.1 mb - 0.00 in0.0 mm 0.00 in0.0 mm
08:07 PM 97.2°F36.2°C 19.2°F-7.1°C 6% 17.9 mph WSW28.8 kmh WSW 19.9 mph32.0 kmh -338605.1 mb - 0.00 in0.0 mm 0.00 in0.0 mm
08:12 PM 97.2°F36.2°C 19.2°F-7.1°C 6% 17.0 mph WSW27.4 kmh WSW 14.1 mph22.7 kmh -338605.1 mb - 0.00 in0.0 mm 0.00 in0.0 mm
08:17 PM 96.6°F35.9°C 22.5°F-5.3°C 7% 16.1 mph WSW25.9 kmh WSW 17.0 mph27.4 kmh -338605.1 mb - 0.00 in0.0 mm 0.00 in0.0 mm
08:22 PM 96.3°F35.7°C 22.3°F-5.4°C 7% 15.0 mph SW24.1 kmh SW 17.9 mph28.8 kmh -338605.1 mb - 0.00 in0.0 mm 0.00 in0.0 mm
08:27 PM 96.1°F35.6°C 22.1°F-5.5°C 7% 17.0 mph SW27.4 kmh SW 15.0 mph24.1 kmh -338605.1 mb - 0.00 in0.0 mm 0.00 in0.0 mm
08:32 PM 95.9°F35.5°C 21.9°F-5.6°C 7% 17.0 mph W27.4 kmh W 10.1 mph16.3 kmh -338605.1 mb - 0.00 in0.0 mm 0.00 in0.0 mm
08:37 PM 95.7°F35.4°C 21.9°F-5.6°C 7% 16.1 mph SW25.9 kmh SW 17.9 mph28.8 kmh -338605.1 mb - 0.00 in0.0 mm 0.00 in0.0 mm
08:42 PM 95.5°F35.3°C 21.7°F-5.7°C 7% 15.0 mph SW24.1 kmh SW 16.1 mph25.9 kmh -338605.1 mb - 0.00 in0.0 mm 0.00 in0.0 mm
08:47 PM 95.4°F35.2°C 24.8°F-4.0°C 8% 16.1 mph WSW25.9 kmh WSW 19.0 mph30.6 kmh -338605.1 mb - 0.00 in0.0 mm 0.00 in0.0 mm
08:52 PM 95.2°F35.1°C 24.6°F-4.1°C 8% 16.1 mph WSW25.9 kmh WSW 23.9 mph38.5 kmh -338605.1 mb - 0.00 in0.0 mm 0.00 in0.0 mm
08:57 PM 94.8°F34.9°C 24.4°F-4.2°C 8% 16.1 mph WSW25.9 kmh WSW 6.9 mph11.1 kmh -338605.1 mb - 0.00 in0.0 mm 0.00 in0.0 mm
09:02 PM 94.6°F34.8°C 24.3°F-4.3°C 8% 14.1 mph SW22.7 kmh SW 14.1 mph22.7 kmh -338605.1 mb - 0.00 in0.0 mm 0.00 in0.0 mm
09:07 PM 94.3°F34.6°C 26.8°F-2.9°C 9% 12.1 mph SW19.5 kmh SW 17.9 mph28.8 kmh -338605.1 mb - 0.00 in0.0 mm 0.00 in0.0 mm
09:12 PM 93.9°F34.4°C 26.6°F-3.0°C 9% 13.0 mph SW20.9 kmh SW 10.1 mph16.3 kmh -338605.1 mb - 0.00 in0.0 mm 0.00 in0.0 mm
09:17 PM 93.7°F34.3°C 26.4°F-3.1°C 9% 13.0 mph SW20.9 kmh SW 11.0 mph17.7 kmh -338605.1 mb - 0.00 in0.0 mm 0.00 in0.0 mm
09:22 PM 93.6°F34.2°C 26.2°F-3.2°C 9% 12.1 mph SW19.5 kmh SW 10.1 mph16.3 kmh -338605.1 mb - 0.00 in0.0 mm 0.00 in0.0 mm
09:27 PM 93.6°F34.2°C 26.2°F-3.2°C 9% 12.1 mph WSW19.5 kmh WSW 19.0 mph30.6 kmh -338605.1 mb - 0.00 in0.0 mm 0.00 in0.0 mm
09:32 PM 93.6°F34.2°C 26.2°F-3.2°C 9% 15.0 mph SW24.1 kmh SW 16.1 mph25.9 kmh -338605.1 mb - 0.00 in0.0 mm 0.00 in0.0 mm
09:37 PM 93.4°F34.1°C 26.1°F-3.3°C 9% 16.1 mph SSW25.9 kmh SSW 16.1 mph25.9 kmh -338605.1 mb - 0.00 in0.0 mm 0.00 in0.0 mm
09:42 PM 93.4°F34.1°C 26.1°F-3.3°C 9% 17.0 mph WSW27.4 kmh WSW 19.0 mph30.6 kmh -338605.1 mb - 0.00 in0.0 mm 0.00 in0.0 mm
09:47 PM 93.2°F34.0°C 28.6°F-1.9°C 10% 15.0 mph WSW24.1 kmh WSW 12.1 mph19.5 kmh -338605.1 mb - 0.00 in0.0 mm 0.00 in0.0 mm
09:52 PM 93.0°F33.9°C 28.4°F-2.0°C 10% 13.0 mph SW20.9 kmh SW 21.0 mph33.8 kmh -338605.1 mb - 0.00 in0.0 mm 0.00 in0.0 mm
09:57 PM 93.0°F33.9°C 25.9°F-3.4°C 9% 14.1 mph SW22.7 kmh SW 17.0 mph27.4 kmh -338605.1 mb - 0.00 in0.0 mm 0.00 in0.0 mm
10:02 PM 93.0°F33.9°C 25.9°F-3.4°C 9% 15.0 mph SW24.1 kmh SW 6.0 mph9.7 kmh -338605.1 mb - 0.00 in0.0 mm 0.00 in0.0 mm
10:07 PM 92.8°F33.8°C 25.7°F-3.5°C 9% 12.1 mph SW19.5 kmh SW 19.9 mph32.0 kmh -338605.1 mb - 0.00 in0.0 mm 0.00 in0.0 mm
10:12 PM 92.8°F33.8°C 25.7°F-3.5°C 9% 12.1 mph SW19.5 kmh SW 11.0 mph17.7 kmh -338605.1 mb - 0.00 in0.0 mm 0.00 in0.0 mm
10:17 PM 92.7°F33.7°C 25.5°F-3.6°C 9% 12.1 mph SSW19.5 kmh SSW 8.9 mph14.3 kmh -338605.1 mb - 0.00 in0.0 mm 0.00 in0.0 mm
10:22 PM 92.3°F33.5°C 25.3°F-3.7°C 9% 10.1 mph S16.3 kmh S 8.1 mph13.0 kmh -338605.1 mb - 0.00 in0.0 mm 0.00 in0.0 mm
10:27 PM 91.8°F33.2°C 27.5°F-2.5°C 10% 10.1 mph SW16.3 kmh SW 12.1 mph19.5 kmh -338605.1 mb - 0.00 in0.0 mm 0.00 in0.0 mm
10:32 PM 91.2°F32.9°C 29.3°F-1.5°C 11% 11.0 mph SW17.7 kmh SW 12.1 mph19.5 kmh -338605.1 mb - 0.00 in0.0 mm 0.00 in0.0 mm
10:37 PM 91.2°F32.9°C 27.1°F-2.7°C 10% 12.1 mph SSW19.5 kmh SSW 10.1 mph16.3 kmh -338605.1 mb - 0.00 in0.0 mm 0.00 in0.0 mm
10:42 PM 91.2°F32.9°C 27.1°F-2.7°C 10% 12.1 mph SSW19.5 kmh SSW 10.1 mph16.3 kmh -338605.1 mb - 0.00 in0.0 mm 0.00 in0.0 mm
10:47 PM 91.8°F33.2°C 25.0°F-3.9°C 9% 13.0 mph WSW20.9 kmh WSW 8.1 mph13.0 kmh -338605.1 mb - 0.00 in0.0 mm 0.00 in0.0 mm
10:52 PM 91.8°F33.2°C 27.5°F-2.5°C 10% 13.0 mph SSW20.9 kmh SSW 10.1 mph16.3 kmh -338605.1 mb - 0.00 in0.0 mm 0.00 in0.0 mm
10:57 PM 91.6°F33.1°C 24.8°F-4.0°C 9% 13.0 mph S20.9 kmh S 8.9 mph14.3 kmh -338605.1 mb - 0.00 in0.0 mm 0.00 in0.0 mm
11:02 PM 91.9°F33.3°C 25.0°F-3.9°C 9% 15.0 mph SW24.1 kmh SW 17.9 mph28.8 kmh -338605.1 mb - 0.00 in0.0 mm 0.00 in0.0 mm
11:07 PM 91.9°F33.3°C 27.7°F-2.4°C 10% 16.1 mph SW25.9 kmh SW 17.0 mph27.4 kmh -338605.1 mb - 0.00 in0.0 mm 0.00 in0.0 mm
11:12 PM 91.8°F33.2°C 25.0°F-3.9°C 9% 15.0 mph SW24.1 kmh SW 15.0 mph24.1 kmh -338605.1 mb - 0.00 in0.0 mm 0.00 in0.0 mm
11:17 PM 91.4°F33.0°C 27.1°F-2.7°C 10% 13.0 mph SW20.9 kmh SW 12.1 mph19.5 kmh -338605.1 mb - 0.00 in0.0 mm 0.00 in0.0 mm
11:22 PM 91.0°F32.8°C 29.3°F-1.5°C 11% 12.1 mph SW19.5 kmh SW 8.9 mph14.3 kmh -338605.1 mb - 0.00 in0.0 mm 0.00 in0.0 mm
11:27 PM 90.7°F32.6°C 28.9°F-1.7°C 11% 13.0 mph SW20.9 kmh SW 14.1 mph22.7 kmh -338605.1 mb - 0.00 in0.0 mm 0.00 in0.0 mm
11:32 PM 90.5°F32.5°C 28.8°F-1.8°C 11% 12.1 mph SW19.5 kmh SW 8.1 mph13.0 kmh -338605.1 mb - 0.00 in0.0 mm 0.00 in0.0 mm
11:37 PM 90.1°F32.3°C 28.6°F-1.9°C 11% 11.0 mph SW17.7 kmh SW 13.0 mph20.9 kmh -338605.1 mb - 0.00 in0.0 mm 0.00 in0.0 mm
11:42 PM 89.8°F32.1°C 30.4°F-0.9°C 12% 10.1 mph SW16.3 kmh SW 13.0 mph20.9 kmh -338605.1 mb - 0.00 in0.0 mm 0.00 in0.0 mm
11:47 PM 89.4°F31.9°C 30.2°F-1.0°C 12% 11.0 mph SW17.7 kmh SW 14.1 mph22.7 kmh -338605.1 mb - 0.00 in0.0 mm 0.00 in0.0 mm
11:52 PM 89.2°F31.8°C 30.0°F-1.1°C 12% 12.1 mph SW19.5 kmh SW 13.0 mph20.9 kmh -338605.1 mb - 0.00 in0.0 mm 0.00 in0.0 mm
11:57 PM 89.2°F31.8°C 32.0°F0.0°C 13% 13.0 mph WSW20.9 kmh WSW 10.1 mph16.3 kmh -338605.1 mb - 0.00 in0.0 mm 0.00 in0.0 mm